createdAt,value
2023-02-24T00:00:07.562Z,93.20
2023-02-24T00:02:38.088Z,90.90
2023-02-24T00:05:07.880Z,83.17
2023-02-24T00:07:38.221Z,90.93
2023-02-24T00:10:09.649Z,87.03
2023-02-24T00:12:38.995Z,88.13
2023-02-24T00:15:09.492Z,88.30
2023-02-24T00:17:38.841Z,82.03
2023-02-24T00:20:12.280Z,84.53
2023-02-24T00:22:42.956Z,91.10
2023-02-24T00:25:12.409Z,88.80
2023-02-24T00:27:41.537Z,86.10
2023-02-24T00:30:12.765Z,83.23
2023-02-24T00:32:41.715Z,85.20
2023-02-24T00:35:10.971Z,86.07
2023-02-24T00:37:40.045Z,89.73
2023-02-24T00:40:12.414Z,84.23
2023-02-24T00:42:42.863Z,87.97
2023-02-24T00:45:12.770Z,87.93
2023-02-24T00:47:42.263Z,84.33
2023-02-24T00:50:14.314Z,80.67
2023-02-24T00:52:43.640Z,84.67
2023-02-24T00:55:15.367Z,84.70
2023-02-24T00:57:45.202Z,81.03
2023-02-24T01:00:16.807Z,82.87
2023-02-24T01:02:46.718Z,83.90
2023-02-24T01:05:16.373Z,87.43
2023-02-24T01:07:45.352Z,84.00
2023-02-24T01:10:18.508Z,87.67
2023-02-24T01:12:54.236Z,89.23
2023-02-24T01:15:24.716Z,91.87
2023-02-24T01:17:53.815Z,91.60
2023-02-24T01:20:22.823Z,90.53
2023-02-24T01:22:54.778Z,89.07
2023-02-24T01:25:25.383Z,88.00
2023-02-24T01:27:56.112Z,90.63
2023-02-24T01:30:25.141Z,99.30
2023-02-24T01:32:54.204Z,97.10
2023-02-24T01:35:23.219Z,102.23
2023-02-24T01:37:53.506Z,103.07
2023-02-24T01:40:22.709Z,104.37
2023-02-24T01:42:53.399Z,108.27
2023-02-24T01:45:25.319Z,112.73
2023-02-24T01:47:58.223Z,112.53
2023-02-24T01:50:28.374Z,120.30
2023-02-24T01:53:01.769Z,110.87
2023-02-24T01:55:34.212Z,109.33
2023-02-24T01:58:10.241Z,124.33
2023-02-24T02:00:47.079Z,110.30
2023-02-24T02:03:32.429Z,115.53
2023-02-24T02:06:03.230Z,99.77
2023-02-24T02:08:32.889Z,110.80
2023-02-24T02:11:06.259Z,108.97
2023-02-24T02:13:39.531Z,98.77
2023-02-24T02:16:32.116Z,104.23
2023-02-24T02:19:14.556Z,109.27
2023-02-24T02:22:07.116Z,102.27
2023-02-24T02:24:54.083Z,121.63
2023-02-24T02:28:04.730Z,119.83
2023-02-24T02:31:06.376Z,114.70
2023-02-24T02:34:09.956Z,115.60
2023-02-24T02:36:47.789Z,115.77
2023-02-24T02:39:24.149Z,122.83
2023-02-24T02:42:01.842Z,105.83
2023-02-24T02:44:40.051Z,120.40
2023-02-24T02:47:14.496Z,105.10
2023-02-24T02:49:46.917Z,110.57
2023-02-24T02:52:37.999Z,112.03
2023-02-24T02:55:11.392Z,111.47
2023-02-24T02:57:47.323Z,120.07
2023-02-24T03:00:21.690Z,114.50
2023-02-24T03:02:55.467Z,117.67
2023-02-24T03:05:31.620Z,108.17
2023-02-24T03:08:02.180Z,119.50
2023-02-24T03:10:52.323Z,122.90
2023-02-24T03:13:25.788Z,109.80
2023-02-24T03:15:56.490Z,125.67
2023-02-24T03:18:32.225Z,115.67
2023-02-24T03:21:08.964Z,121.47
2023-02-24T03:23:45.537Z,133.67
2023-02-24T03:26:22.224Z,205.27
2023-02-24T03:29:00.579Z,138.90
2023-02-24T03:31:41.025Z,147.97
2023-02-24T03:34:13.781Z,162.73
2023-02-24T03:36:44.814Z,192.17
2023-02-24T03:39:15.975Z,120.97
2023-02-24T03:42:09.735Z,97.77
2023-02-24T03:44:38.584Z,110.57
2023-02-24T03:47:09.933Z,118.17
2023-02-24T03:49:43.733Z,86.83
2023-02-24T03:52:23.701Z,94.60
2023-02-24T03:55:25.447Z,93.93
2023-02-24T03:58:08.632Z,100.03
2023-02-24T04:00:52.577Z,82.90
2023-02-24T04:03:27.749Z,82.67
2023-02-24T04:06:14.308Z,89.23
2023-02-24T04:08:52.491Z,94.20
2023-02-24T04:11:27.008Z,93.47
2023-02-24T04:14:03.360Z,88.50
2023-02-24T04:16:40.123Z,88.67
2023-02-24T04:19:14.337Z,97.63
2023-02-24T04:21:48.601Z,110.03
2023-02-24T04:24:29.188Z,108.87
2023-02-24T04:27:00.287Z,105.23
2023-02-24T04:29:37.034Z,108.20
2023-02-24T04:32:09.409Z,101.40
2023-02-24T04:34:41.129Z,106.47
2023-02-24T04:37:10.271Z,101.63
2023-02-24T04:39:40.615Z,105.60
2023-02-24T04:42:22.579Z,103.37
2023-02-24T04:44:51.387Z,112.57
2023-02-24T04:47:20.433Z,114.23
2023-02-24T04:49:59.468Z,105.23
2023-02-24T04:52:28.401Z,111.23
2023-02-24T04:54:59.697Z,109.70
2023-02-24T04:57:28.786Z,107.97
2023-02-24T04:59:59.074Z,112.70
2023-02-24T05:02:28.243Z,109.20
2023-02-24T05:04:59.656Z,118.23
2023-02-24T05:07:30.826Z,123.03
2023-02-24T05:10:03.019Z,179.37
2023-02-24T05:12:33.285Z,212.87
2023-02-24T05:15:02.357Z,177.73
2023-02-24T05:17:32.411Z,164.63
2023-02-24T05:20:30.413Z,198.13
2023-02-24T05:23:18.391Z,181.23
2023-02-24T05:25:48.935Z,154.10
2023-02-24T05:28:17.933Z,140.20
2023-02-24T05:30:47.083Z,129.40
2023-02-24T05:33:16.023Z,115.70
2023-02-24T05:35:45.645Z,105.83
2023-02-24T05:38:14.567Z,95.67
2023-02-24T05:40:47.127Z,84.23
2023-02-24T05:43:18.903Z,72.40
2023-02-24T05:45:47.897Z,82.27
2023-02-24T05:48:19.828Z,106.70
2023-02-24T05:50:55.218Z,87.07
2023-02-24T05:53:24.613Z,75.97
2023-02-24T05:55:55.514Z,73.00
2023-02-24T05:58:31.077Z,68.63
2023-02-24T06:01:06.232Z,107.90
2023-02-24T06:03:35.883Z,106.60
2023-02-24T06:06:09.207Z,107.63
2023-02-24T06:08:43.946Z,91.37
2023-02-24T06:11:17.625Z,97.60
2023-02-24T06:13:49.143Z,95.33
2023-02-24T06:16:38.245Z,92.23
2023-02-24T06:19:08.158Z,127.27
2023-02-24T06:21:41.519Z,168.73
2023-02-24T06:24:15.970Z,142.23
2023-02-24T06:26:45.054Z,117.27
2023-02-24T06:29:30.814Z,100.53
2023-02-24T06:32:00.677Z,92.60
2023-02-24T06:34:29.626Z,95.87
2023-02-24T06:37:01.019Z,95.27
2023-02-24T06:39:30.397Z,95.83
2023-02-24T06:42:04.087Z,94.40
2023-02-24T06:44:35.876Z,75.03
2023-02-24T06:47:05.482Z,63.90
2023-02-24T06:49:34.619Z,61.10
2023-02-24T06:52:05.160Z,63.07
2023-02-24T06:54:36.304Z,61.20
2023-02-24T06:57:05.856Z,55.67
2023-02-24T06:59:36.127Z,55.57
2023-02-24T07:02:05.102Z,59.50
2023-02-24T07:04:43.961Z,60.30
2023-02-24T07:07:14.735Z,68.50
2023-02-24T07:09:45.663Z,81.40
2023-02-24T07:12:21.190Z,90.77
2023-02-24T07:14:52.071Z,80.00
2023-02-24T07:17:23.551Z,123.83
2023-02-24T07:19:54.767Z,110.37
2023-02-24T07:22:25.480Z,92.13
2023-02-24T07:25:00.742Z,99.87
2023-02-24T07:27:30.397Z,92.27
2023-02-24T07:30:06.494Z,86.90
2023-02-24T07:32:35.655Z,75.20
2023-02-24T07:35:04.743Z,96.90
2023-02-24T07:37:35.036Z,80.50
2023-02-24T07:40:17.503Z,100.50
2023-02-24T07:42:49.239Z,81.23
2023-02-24T07:45:19.713Z,80.40
2023-02-24T07:47:48.552Z,76.27
2023-02-24T07:50:18.722Z,72.13
2023-02-24T07:52:49.686Z,67.90
2023-02-24T07:55:22.019Z,67.17
2023-02-24T07:57:52.065Z,72.63
2023-02-24T08:00:28.618Z,69.77
2023-02-24T08:03:00.475Z,70.37
2023-02-24T08:05:30.757Z,69.60
2023-02-24T08:07:59.787Z,63.23
2023-02-24T08:10:35.785Z,61.13
2023-02-24T08:13:06.937Z,61.07
2023-02-24T08:15:56.548Z,60.70
2023-02-24T08:18:28.579Z,60.33
2023-02-24T08:21:07.528Z,61.60
2023-02-24T08:23:44.795Z,61.90
2023-02-24T08:26:14.055Z,65.97
2023-02-24T08:28:44.185Z,77.33
2023-02-24T08:31:14.877Z,72.53
2023-02-24T08:33:57.350Z,71.87
2023-02-24T08:36:26.805Z,75.53
2023-02-24T08:38:59.539Z,72.17
2023-02-24T08:41:46.561Z,72.93
2023-02-24T08:44:20.194Z,72.47
2023-02-24T08:46:52.687Z,81.17
2023-02-24T08:49:25.674Z,83.90
2023-02-24T08:51:55.482Z,80.43
2023-02-24T08:54:31.096Z,79.77
2023-02-24T08:57:11.800Z,77.83
2023-02-24T08:59:50.047Z,77.43
2023-02-24T09:02:29.894Z,77.63
2023-02-24T09:05:14.228Z,78.80
2023-02-24T09:07:45.260Z,73.70
2023-02-24T09:10:19.307Z,69.27
2023-02-24T09:12:49.457Z,64.70
2023-02-24T09:15:26.254Z,66.63
2023-02-24T09:18:07.480Z,69.73
2023-02-24T09:20:54.399Z,67.67
2023-02-24T09:23:30.165Z,66.17
2023-02-24T09:25:59.040Z,66.67
2023-02-24T09:28:37.883Z,65.10
2023-02-24T09:31:10.489Z,65.90
2023-02-24T09:33:44.161Z,70.23
2023-02-24T09:36:29.323Z,78.90
2023-02-24T09:39:17.342Z,69.40
2023-02-24T09:41:57.066Z,66.87
2023-02-24T09:44:33.575Z,66.30
2023-02-24T09:47:21.948Z,71.13
2023-02-24T09:49:59.337Z,82.17
2023-02-24T09:52:39.958Z,79.47
2023-02-24T09:55:29.705Z,86.13
2023-02-24T09:58:34.787Z,83.53
2023-02-24T10:01:33.943Z,79.80
2023-02-24T10:04:20.640Z,80.33
2023-02-24T10:06:55.530Z,77.07
2023-02-24T10:09:29.947Z,96.57
2023-02-24T10:12:05.381Z,72.40
2023-02-24T10:14:44.038Z,72.53
2023-02-24T10:17:24.322Z,69.50
2023-02-24T10:20:00.342Z,68.40
2023-02-24T10:22:40.676Z,70.73
2023-02-24T10:25:24.481Z,76.60
2023-02-24T10:28:02.056Z,68.33
2023-02-24T10:30:42.724Z,65.57
2023-02-24T10:33:26.697Z,66.97
2023-02-24T10:36:09.471Z,71.20
2023-02-24T10:38:45.730Z,70.63
2023-02-24T10:41:16.368Z,68.67
2023-02-24T10:43:56.459Z,66.50
2023-02-24T10:46:42.621Z,70.53
2023-02-24T10:49:17.175Z,66.73
2023-02-24T10:51:54.648Z,66.43
2023-02-24T10:54:45.312Z,69.13
2023-02-24T10:57:23.339Z,65.10
2023-02-24T11:00:15.909Z,68.07
2023-02-24T11:03:04.311Z,66.60
2023-02-24T11:05:44.716Z,65.37
2023-02-24T11:08:36.650Z,63.70
2023-02-24T11:11:25.717Z,62.17
2023-02-24T11:14:13.196Z,65.53
2023-02-24T11:17:25.057Z,66.50
2023-02-24T11:20:00.391Z,69.13
2023-02-24T11:22:35.602Z,68.00
2023-02-24T11:25:10.347Z,62.57
2023-02-24T11:27:43.614Z,62.07
2023-02-24T11:30:41.360Z,62.77
2023-02-24T11:33:22.463Z,74.00
2023-02-24T11:36:02.804Z,66.17
2023-02-24T11:38:40.158Z,64.70
2023-02-24T11:41:18.988Z,68.20
2023-02-24T11:43:59.528Z,67.40
2023-02-24T11:46:39.901Z,65.27
2023-02-24T11:49:19.373Z,64.67
2023-02-24T11:51:48.564Z,69.60
2023-02-24T11:54:18.619Z,67.90
2023-02-24T11:56:54.067Z,105.10
2023-02-24T11:59:32.092Z,65.17
2023-02-24T12:02:06.414Z,63.27
2023-02-24T12:04:39.598Z,64.93
2023-02-24T12:07:11.756Z,62.83
2023-02-24T12:09:49.201Z,68.50
2023-02-24T12:12:23.569Z,67.87
2023-02-24T12:14:58.529Z,64.60
2023-02-24T12:17:35.486Z,67.83
2023-02-24T12:20:07.274Z,67.40
2023-02-24T12:22:51.187Z,72.47
2023-02-24T12:25:50.481Z,80.93
2023-02-24T12:28:34.258Z,69.10
2023-02-24T12:31:14.907Z,65.67
2023-02-24T12:33:53.831Z,75.33
2023-02-24T12:36:36.762Z,74.80
2023-02-24T12:39:16.093Z,71.10
2023-02-24T12:42:03.222Z,77.17
2023-02-24T12:44:43.137Z,82.53
2023-02-24T12:47:15.696Z,74.83
2023-02-24T12:50:26.057Z,76.40
2023-02-24T12:53:07.743Z,71.17
2023-02-24T12:55:47.249Z,94.23
2023-02-24T12:58:21.817Z,75.13
2023-02-24T13:01:04.952Z,77.43
2023-02-24T13:03:56.191Z,73.50
2023-02-24T13:06:35.618Z,71.87
2023-02-24T13:09:13.315Z,70.13
2023-02-24T13:11:47.531Z,71.60
2023-02-24T13:14:37.283Z,76.17
2023-02-24T13:17:17.715Z,75.73
2023-02-24T13:19:49.759Z,71.70
2023-02-24T13:22:31.185Z,71.77
2023-02-24T13:25:13.680Z,76.03
2023-02-24T13:27:44.540Z,74.47
2023-02-24T13:30:30.537Z,74.73
2023-02-24T13:33:06.248Z,72.07
2023-02-24T13:35:38.269Z,73.87
2023-02-24T13:38:24.797Z,77.23
2023-02-24T13:40:54.220Z,73.93
2023-02-24T13:43:27.002Z,70.77
2023-02-24T13:46:00.281Z,71.57
2023-02-24T13:48:54.830Z,72.53
2023-02-24T13:51:56.116Z,75.20
2023-02-24T13:54:52.779Z,72.40
2023-02-24T13:57:47.924Z,73.23
2023-02-24T14:00:29.029Z,71.20
2023-02-24T14:02:59.071Z,84.83
2023-02-24T14:05:31.596Z,81.90
2023-02-24T14:08:23.559Z,82.30
2023-02-24T14:11:00.493Z,73.07
2023-02-24T14:13:34.375Z,83.73
2023-02-24T14:16:08.069Z,75.50
2023-02-24T14:18:37.659Z,83.90
2023-02-24T14:21:07.673Z,78.83
2023-02-24T14:23:38.041Z,76.37
2023-02-24T14:26:27.082Z,77.37
2023-02-24T14:29:01.059Z,74.20
2023-02-24T14:31:50.852Z,71.63
2023-02-24T14:34:24.068Z,72.53
2023-02-24T14:36:55.413Z,71.60
2023-02-24T14:39:25.953Z,71.47
2023-02-24T14:42:11.774Z,74.07
2023-02-24T14:44:43.715Z,73.83
2023-02-24T14:47:15.651Z,84.53
2023-02-24T14:49:54.917Z,79.73
2023-02-24T14:52:31.854Z,75.83
2023-02-24T14:55:06.303Z,84.30
2023-02-24T14:57:41.799Z,81.33
2023-02-24T15:00:22.208Z,83.93
2023-02-24T15:02:57.061Z,74.67
2023-02-24T15:05:26.916Z,72.30
2023-02-24T15:07:56.268Z,72.40
2023-02-24T15:10:28.379Z,90.93
2023-02-24T15:13:01.781Z,93.50
2023-02-24T15:15:39.683Z,88.83
2023-02-24T15:18:14.124Z,81.97
2023-02-24T15:20:46.085Z,86.37
2023-02-24T15:23:28.234Z,81.60
2023-02-24T15:25:57.367Z,73.53
2023-02-24T15:28:31.329Z,70.50
2023-02-24T15:31:08.468Z,75.53
2023-02-24T15:33:50.297Z,73.00
2023-02-24T15:36:38.661Z,72.93
2023-02-24T15:39:31.927Z,74.87
2023-02-24T15:42:39.047Z,77.00
2023-02-24T15:45:32.500Z,75.53
2023-02-24T15:48:26.824Z,94.00
2023-02-24T15:52:29.928Z,114.53
2023-02-24T15:55:16.619Z,113.33
2023-02-24T15:58:05.527Z,112.10
2023-02-24T16:00:38.030Z,101.10
2023-02-24T16:03:07.206Z,100.43
2023-02-24T16:05:36.242Z,102.20
2023-02-24T16:08:05.817Z,101.20
2023-02-24T16:10:34.863Z,94.97
2023-02-24T16:13:04.212Z,93.20
2023-02-24T16:15:38.082Z,90.53
2023-02-24T16:18:14.317Z,91.37
2023-02-24T16:20:43.417Z,115.07
2023-02-24T16:23:14.960Z,146.47
2023-02-24T16:25:46.949Z,191.90
2023-02-24T16:28:17.354Z,189.90
2023-02-24T16:30:51.439Z,184.57
2023-02-24T16:33:23.706Z,190.33
2023-02-24T16:35:54.587Z,193.77
2023-02-24T16:38:26.947Z,151.60
2023-02-24T16:40:58.318Z,154.60
2023-02-24T16:43:29.999Z,120.40
2023-02-24T16:46:04.273Z,124.33
2023-02-24T16:48:37.445Z,111.23
2023-02-24T16:51:08.011Z,103.23
2023-02-24T16:53:39.562Z,109.43
2023-02-24T16:56:19.107Z,100.63
2023-02-24T16:59:25.299Z,101.83
2023-02-24T17:02:20.055Z,99.57
2023-02-24T17:04:50.729Z,95.23
2023-02-24T17:07:24.852Z,91.00
2023-02-24T17:10:46.706Z,73.67
2023-02-24T17:13:20.828Z,65.57
2023-02-24T17:15:57.624Z,63.97
2023-02-24T17:18:28.867Z,57.00
2023-02-24T17:20:59.079Z,54.50
2023-02-24T17:23:28.449Z,54.60
2023-02-24T17:26:02.672Z,53.83
2023-02-24T17:28:33.400Z,51.27
2023-02-24T17:31:03.205Z,52.27
2023-02-24T17:33:56.888Z,50.43
2023-02-24T17:36:26.789Z,50.40
2023-02-24T17:38:57.721Z,52.67
2023-02-24T17:41:27.629Z,52.37
2023-02-24T17:43:56.664Z,52.70
2023-02-24T17:46:25.880Z,54.13
2023-02-24T17:48:57.107Z,55.60
2023-02-24T17:51:27.852Z,57.57
2023-02-24T17:53:58.762Z,59.90
2023-02-24T17:56:28.153Z,57.67
2023-02-24T17:59:02.416Z,65.17
2023-02-24T18:01:34.615Z,74.83
2023-02-24T18:04:22.786Z,70.83
2023-02-24T18:06:56.112Z,69.17
2023-02-24T18:09:25.960Z,75.57
2023-02-24T18:11:57.217Z,79.83
2023-02-24T18:14:26.498Z,79.83
2023-02-24T18:16:55.412Z,78.13
2023-02-24T18:19:26.543Z,74.73
2023-02-24T18:21:58.292Z,67.97
2023-02-24T18:24:48.269Z,68.93
2023-02-24T18:27:17.607Z,67.60
2023-02-24T18:29:46.625Z,64.67
2023-02-24T18:32:15.963Z,67.50
2023-02-24T18:34:47.407Z,67.80
2023-02-24T18:37:17.240Z,65.93
2023-02-24T18:39:46.413Z,69.50
2023-02-24T18:42:15.304Z,73.33
2023-02-24T18:44:44.293Z,79.80
2023-02-24T18:47:15.422Z,78.00
2023-02-24T18:49:46.041Z,80.30
2023-02-24T18:52:15.289Z,80.97
2023-02-24T18:54:45.184Z,83.90
2023-02-24T18:57:14.206Z,80.43
2023-02-24T18:59:43.017Z,84.73
2023-02-24T19:02:12.360Z,95.60
2023-02-24T19:04:41.491Z,93.33
2023-02-24T19:07:12.090Z,96.07
2023-02-24T19:09:41.981Z,104.30
2023-02-24T19:12:11.392Z,115.43
2023-02-24T19:14:40.410Z,115.63
2023-02-24T19:17:09.254Z,110.63
2023-02-24T19:19:38.241Z,108.37
2023-02-24T19:22:08.520Z,92.60
2023-02-24T19:24:58.980Z,84.73
2023-02-24T19:27:28.728Z,68.80
2023-02-24T19:29:58.354Z,62.20
2023-02-24T19:32:27.599Z,63.17
2023-02-24T19:34:56.520Z,60.30
2023-02-24T19:37:25.425Z,61.03
2023-02-24T19:40:14.849Z,60.20
2023-02-24T19:42:47.678Z,60.80
2023-02-24T19:45:17.333Z,63.87
2023-02-24T19:47:48.873Z,66.73
2023-02-24T19:50:19.032Z,80.93
2023-02-24T19:52:48.436Z,125.20
2023-02-24T19:55:19.239Z,121.80
2023-02-24T19:57:48.307Z,144.57
2023-02-24T20:00:19.100Z,141.27
2023-02-24T20:02:48.153Z,121.50
2023-02-24T20:05:17.128Z,114.00
2023-02-24T20:07:46.050Z,117.20
2023-02-24T20:10:20.697Z,144.97
2023-02-24T20:12:50.733Z,201.97
2023-02-24T20:15:20.062Z,178.30
2023-02-24T20:17:49.926Z,143.40
2023-02-24T20:20:20.015Z,129.83
2023-02-24T20:22:50.173Z,126.70
2023-02-24T20:25:21.400Z,130.50
2023-02-24T20:27:54.070Z,171.70
2023-02-24T20:30:30.176Z,118.73
2023-02-24T20:33:00.863Z,120.63
2023-02-24T20:35:32.872Z,114.30
2023-02-24T20:38:02.206Z,116.13
2023-02-24T20:40:34.421Z,106.83
2023-02-24T20:43:06.442Z,111.13
2023-02-24T20:45:36.546Z,111.27
2023-02-24T20:48:06.895Z,109.90
2023-02-24T20:50:36.115Z,113.83
2023-02-24T20:53:05.019Z,106.03
2023-02-24T20:55:36.674Z,103.20
2023-02-24T20:58:06.772Z,107.80
2023-02-24T21:00:38.676Z,120.57
2023-02-24T21:03:12.143Z,120.60
2023-02-24T21:05:41.549Z,119.30
2023-02-24T21:08:12.341Z,113.43
2023-02-24T21:10:45.601Z,116.03
2023-02-24T21:13:14.630Z,119.10
2023-02-24T21:15:52.508Z,104.30
2023-02-24T21:18:26.948Z,101.60
2023-02-24T21:20:56.368Z,102.03
2023-02-24T21:23:26.074Z,100.00
2023-02-24T21:25:56.881Z,102.87
2023-02-24T21:28:25.997Z,99.17
2023-02-24T21:30:54.962Z,98.93
2023-02-24T21:33:24.122Z,107.87
2023-02-24T21:35:59.680Z,122.27
2023-02-24T21:38:31.617Z,125.87
2023-02-24T21:41:02.978Z,113.53
2023-02-24T21:43:32.651Z,109.10
2023-02-24T21:46:03.222Z,114.87
2023-02-24T21:48:32.326Z,102.53
2023-02-24T21:51:03.955Z,99.33
2023-02-24T21:53:33.926Z,100.90
2023-02-24T21:56:11.114Z,103.10
2023-02-24T21:58:40.843Z,99.40
2023-02-24T22:01:14.019Z,100.63
2023-02-24T22:03:51.858Z,101.37
2023-02-24T22:06:21.240Z,103.23
2023-02-24T22:08:50.374Z,105.50
2023-02-24T22:11:23.829Z,115.50
2023-02-24T22:13:52.781Z,126.60
2023-02-24T22:16:23.792Z,129.20
2023-02-24T22:19:12.055Z,117.30
2023-02-24T22:21:42.634Z,114.93
2023-02-24T22:24:15.309Z,114.43
2023-02-24T22:26:46.276Z,107.90
2023-02-24T22:29:15.396Z,104.20
2023-02-24T22:31:48.301Z,103.63
2023-02-24T22:34:18.586Z,102.77
2023-02-24T22:36:47.502Z,99.40
2023-02-24T22:39:17.216Z,98.23
2023-02-24T22:41:48.156Z,92.57
2023-02-24T22:44:19.535Z,92.47
2023-02-24T22:46:49.588Z,89.53
2023-02-24T22:49:19.965Z,94.37
2023-02-24T22:51:48.944Z,94.17
2023-02-24T22:54:18.044Z,88.80
2023-02-24T22:56:48.634Z,89.87
2023-02-24T22:59:17.537Z,82.17
2023-02-24T23:01:46.386Z,89.90
2023-02-24T23:04:17.227Z,97.63
2023-02-24T23:06:47.762Z,90.17
2023-02-24T23:09:22.860Z,90.20
2023-02-24T23:11:53.292Z,93.63
2023-02-24T23:14:22.359Z,89.90
2023-02-24T23:16:55.867Z,97.40
2023-02-24T23:19:25.140Z,92.93
2023-02-24T23:21:56.449Z,87.77
2023-02-24T23:24:25.926Z,86.63
2023-02-24T23:26:57.856Z,88.93
2023-02-24T23:29:27.231Z,86.50
2023-02-24T23:31:56.511Z,88.37
2023-02-24T23:34:25.732Z,85.70
2023-02-24T23:36:54.830Z,87.47
2023-02-24T23:39:24.169Z,91.73
2023-02-24T23:41:57.520Z,88.40
2023-02-24T23:44:28.936Z,88.53
2023-02-24T23:46:58.821Z,88.13
2023-02-24T23:49:39.124Z,84.17
2023-02-24T23:52:12.788Z,93.57
2023-02-24T23:54:43.687Z,89.43
2023-02-24T23:57:12.717Z,88.50
2023-02-24T23:59:43.008Z,95.07
